Time,TemperatureF,DewpointF,PressureIn,WindDirection,WindDirectionDegrees,WindSpeedMPH,WindSpeedGustMPH,Humidity,HourlyPrecipIn,Conditions,Clouds,dailyrainin,SoftwareType,DateUTC
2013-05-15 00:00:00,48.9,37.3,30.03,North,0,0.0,0.0,64,0.00,,OVC110,0.00,VWS V14.00,2013-05-15 04:00:00,
2013-05-15 00:15:00,48.7,37.9,30.03,North,0,0.0,0.0,66,0.00,,OVC110,0.00,VWS V14.00,2013-05-15 04:15:00,
2013-05-15 00:30:00,48.7,38.7,30.03,North,0,0.0,0.0,68,0.00,,OVC110,0.00,VWS V14.00,2013-05-15 04:30:00,
2013-05-15 00:45:00,48.7,39.0,30.03,North,0,0.0,0.0,69,0.00,,OVC110,0.00,VWS V14.00,2013-05-15 04:45:00,
2013-05-15 01:00:00,48.7,39.0,30.00,North,0,0.0,0.0,69,0.00,,OVC070,0.00,VWS V14.00,2013-05-15 05:00:00,
2013-05-15 01:15:00,48.7,39.0,30.00,North,0,0.0,0.0,69,0.00,,OVC070,0.00,VWS V14.00,2013-05-15 05:15:00,
2013-05-15 01:44:00,48.6,40.3,30.00,North,0,0.0,0.0,73,0.00,,OVC070,0.00,VWS V14.00,2013-05-15 05:44:00,
2013-05-15 01:59:00,48.4,39.8,30.00,North,0,0.0,0.0,72,0.00,,OVC070,0.00,VWS V14.00,2013-05-15 05:59:00,
2013-05-15 02:14:00,48.4,40.1,30.00,North,0,0.0,0.0,73,0.00,,OVC070,0.00,VWS V14.00,2013-05-15 06:14:00,
2013-05-15 02:29:00,48.6,40.7,29.97,North,0,0.0,0.0,74,0.00,,OVC070,0.00,VWS V14.00,2013-05-15 06:29:00,
2013-05-15 02:44:00,48.6,40.7,29.97,North,0,0.0,0.0,74,0.00,,OVC070,0.00,VWS V14.00,2013-05-15 06:44:00,
2013-05-15 02:59:00,49.5,34.9,29.97,North,0,0.0,0.0,57,0.00,,OVC070,0.00,VWS V14.00,2013-05-15 06:59:00,
2013-05-15 03:14:00,50.0,30.0,29.97,North,0,0.0,0.0,46,0.00,,OVC070,0.00,VWS V14.00,2013-05-15 07:14:00,
2013-05-15 03:29:00,50.0,29.0,29.97,North,0,0.0,0.0,44,0.00,,OVC070,0.00,VWS V14.00,2013-05-15 07:29:00,
2013-05-15 03:44:00,50.7,25.4,29.97,North,0,0.0,0.0,37,0.00,,OVC070,0.00,VWS V14.00,2013-05-15 07:44:00,
2013-05-15 03:59:00,51.1,23.7,29.94,North,0,0.0,0.0,34,0.00,,OVC070,0.00,VWS V14.00,2013-05-15 07:59:00,
2013-05-15 04:14:00,52.0,20.7,29.94,North,0,0.0,0.0,29,0.00,,OVC080,0.00,VWS V14.00,2013-05-15 08:14:00,
2013-05-15 04:29:00,52.7,19.7,29.94,North,0,0.0,0.0,27,0.00,,OVC080,0.00,VWS V14.00,2013-05-15 08:29:00,
2013-05-15 04:44:00,52.7,20.5,29.94,North,0,0.0,0.0,28,0.00,,OVC080,0.00,VWS V14.00,2013-05-15 08:44:00,
2013-05-15 04:59:00,52.7,20.5,29.94,North,0,0.0,0.0,28,0.00,,OVC080,0.00,VWS V14.00,2013-05-15 08:59:00,
2013-05-15 05:14:00,52.2,20.1,29.94,North,0,0.0,0.0,28,0.00,,OVC085,0.00,VWS V14.00,2013-05-15 09:14:00,
2013-05-15 05:29:00,52.0,20.7,29.94,North,0,0.0,0.0,29,0.00,,OVC085,0.00,VWS V14.00,2013-05-15 09:29:00,
2013-05-15 05:44:00,52.2,21.7,29.94,North,0,0.0,0.0,30,0.00,,OVC085,0.00,VWS V14.00,2013-05-15 09:44:00,
2013-05-15 05:59:00,52.3,21.8,29.91,North,0,0.0,0.0,30,0.00,,OVC085,0.00,VWS V14.00,2013-05-15 09:59:00,
2013-05-15 06:15:00,52.0,22.3,29.94,North,0,0.0,0.0,31,0.00,,OVC090,0.00,VWS V14.00,2013-05-15 10:15:00,
2013-05-15 06:29:00,52.3,22.6,29.91,North,0,0.0,0.0,31,0.00,,OVC090,0.00,VWS V14.00,2013-05-15 10:29:00,
2013-05-15 06:45:00,52.9,23.1,29.91,North,0,0.0,0.0,31,0.00,,OVC090,0.00,VWS V14.00,2013-05-15 10:45:00,
2013-05-15 07:00:00,52.9,23.1,29.94,North,0,0.0,0.0,31,0.00,,BKN095,0.00,VWS V14.00,2013-05-15 11:00:00,
2013-05-15 07:14:00,53.1,23.2,29.91,North,0,0.0,0.0,31,0.00,,BKN095,0.00,VWS V14.00,2013-05-15 11:14:00,
2013-05-15 07:30:00,54.0,23.2,29.91,North,0,0.0,0.0,30,0.00,,BKN095,0.00,VWS V14.00,2013-05-15 11:30:00,
2013-05-15 07:45:00,54.7,23.9,29.91,North,0,0.0,0.0,30,0.00,,BKN095,0.00,VWS V14.00,2013-05-15 11:45:00,
2013-05-15 08:00:00,55.0,25.0,29.91,North,0,0.0,0.0,31,0.00,,BKN095,0.00,VWS V14.00,2013-05-15 12:00:00,
2013-05-15 08:30:00,55.0,25.7,29.94,North,0,0.0,0.0,32,0.00,,BKN095,0.00,VWS V14.00,2013-05-15 12:30:00,
2013-05-15 08:45:00,55.8,25.6,29.91,North,0,0.0,0.0,31,0.00,,BKN095,0.00,VWS V14.00,2013-05-15 12:45:00,
2013-05-15 09:00:00,56.5,26.2,29.88,North,0,0.0,0.0,31,0.00,,BKN095,0.00,VWS V14.00,2013-05-15 13:00:00,
2013-05-15 09:15:00,56.7,27.2,29.88,North,0,0.0,0.0,32,0.00,,BKN095,0.00,VWS V14.00,2013-05-15 13:15:00,
2013-05-15 09:30:00,57.7,25.7,29.91,North,0,0.0,0.0,29,0.00,,BKN095,0.00,VWS V14.00,2013-05-15 13:30:00,
2013-05-15 09:45:00,58.1,26.9,29.88,North,0,0.0,0.0,30,0.00,,-RA,0.00,VWS V14.00,2013-05-15 13:45:00,
2013-05-15 10:00:00,57.7,25.7,29.85,North,0,0.0,0.0,29,0.00,,-RA,0.00,VWS V14.00,2013-05-15 14:00:00,
2013-05-15 10:30:00,60.4,26.3,29.88,North,0,0.0,0.0,27,0.00,,-RA,0.00,VWS V14.00,2013-05-15 14:30:00,
2013-05-15 10:45:00,61.5,25.4,29.88,North,0,0.0,0.0,25,0.00,,-RA,0.00,VWS V14.00,2013-05-15 14:45:00,
2013-05-15 11:00:00,60.8,26.6,29.85,North,0,0.0,0.0,27,0.00,,-RA,0.00,VWS V14.00,2013-05-15 15:00:00,
2013-05-15 11:16:00,60.8,25.7,29.85,North,0,0.0,0.0,26,0.00,,BKN120,0.00,VWS V14.00,2013-05-15 15:16:00,
2013-05-15 11:30:00,60.8,27.5,29.85,North,0,0.0,0.0,28,0.00,,BKN120,0.00,VWS V14.00,2013-05-15 15:30:00,
2013-05-15 11:45:00,62.4,26.2,29.85,North,0,0.0,0.0,25,0.00,,BKN120,0.00,VWS V14.00,2013-05-15 15:45:00,
2013-05-15 12:00:00,62.8,26.5,29.85,North,0,0.0,0.0,25,0.00,,CLR,0.00,VWS V14.00,2013-05-15 16:00:00,
2013-05-15 12:15:00,62.2,27.0,29.85,North,0,0.0,0.0,26,0.00,,CLR,0.00,VWS V14.00,2013-05-15 16:15:00,
2013-05-15 12:30:00,61.0,27.7,29.85,North,0,0.0,0.0,28,0.00,,CLR,0.00,VWS V14.00,2013-05-15 16:30:00,
2013-05-15 12:45:00,60.4,32.0,29.85,North,0,0.0,0.0,34,0.00,,CLR,0.00,VWS V14.00,2013-05-15 16:45:00,
2013-05-15 13:00:00,60.4,32.7,29.79,North,0,0.0,0.0,35,0.00,,CLR,0.00,VWS V14.00,2013-05-15 17:00:00,
2013-05-15 13:15:00,61.5,35.0,29.82,North,0,0.0,0.0,37,0.00,,CLR,0.00,VWS V14.00,2013-05-15 17:15:00,
2013-05-15 13:30:00,61.2,33.3,29.76,North,0,0.0,0.0,35,0.00,,CLR,0.00,VWS V14.00,2013-05-15 17:30:00,
2013-05-15 13:59:00,66.9,31.0,29.76,North,0,0.0,0.0,26,0.00,,CLR,0.00,VWS V14.00,2013-05-15 17:59:00,
2013-05-15 14:14:00,68.0,30.9,29.73,North,0,0.0,0.0,25,0.00,,CLR,0.00,VWS V14.00,2013-05-15 18:14:00,
2013-05-15 14:29:00,69.4,31.1,29.76,North,0,0.0,0.0,24,0.00,,CLR,0.00,VWS V14.00,2013-05-15 18:29:00,
2013-05-15 14:44:00,68.5,30.4,29.76,North,0,0.0,0.0,24,0.00,,CLR,0.00,VWS V14.00,2013-05-15 18:44:00,
2013-05-15 15:14:00,73.0,32.0,29.73,North,0,0.0,0.0,22,0.00,,CLR,0.00,VWS V14.00,2013-05-15 19:14:00,
2013-05-15 15:29:00,73.0,32.0,29.73,North,0,0.0,0.0,22,0.00,,CLR,0.00,VWS V14.00,2013-05-15 19:29:00,
2013-05-15 15:44:00,75.0,32.5,29.70,North,0,0.0,0.0,21,0.00,,CLR,0.00,VWS V14.00,2013-05-15 19:44:00,
2013-05-15 15:59:00,78.3,33.9,29.70,North,0,0.0,0.0,20,0.00,,CLR,0.00,VWS V14.00,2013-05-15 19:59:00,
2013-05-15 16:14:00,77.4,30.6,29.70,North,0,0.0,0.0,18,0.00,,CLR,0.00,VWS V14.00,2013-05-15 20:14:00,
2013-05-15 16:29:00,78.1,31.2,29.70,North,0,0.0,0.0,18,0.00,,CLR,0.00,VWS V14.00,2013-05-15 20:29:00,
2013-05-15 16:44:00,79.5,30.9,29.70,North,0,0.0,0.0,17,0.00,,CLR,0.00,VWS V14.00,2013-05-15 20:44:00,
2013-05-15 16:59:00,80.4,31.7,29.70,North,0,0.0,0.0,17,0.00,,CLR,0.00,VWS V14.00,2013-05-15 20:59:00,
2013-05-15 17:14:00,81.7,32.7,29.70,North,0,0.0,0.0,17,0.00,,CLR,0.00,VWS V14.00,2013-05-15 21:14:00,
2013-05-15 17:29:00,83.1,29.0,29.67,North,0,0.0,0.0,14,0.00,,CLR,0.00,VWS V14.00,2013-05-15 21:29:00,
2013-05-15 17:44:00,84.2,28.1,29.67,North,0,0.0,0.0,13,0.00,,CLR,0.00,VWS V14.00,2013-05-15 21:44:00,
2013-05-15 17:59:00,83.1,29.0,29.67,North,0,0.0,0.0,14,0.00,,CLR,0.00,VWS V14.00,2013-05-15 21:59:00,
2013-05-15 18:14:00,82.4,28.5,29.67,North,0,0.0,0.0,14,0.00,,CLR,0.00,VWS V14.00,2013-05-15 22:14:00,
2013-05-15 18:29:00,81.7,27.9,29.67,North,0,0.0,0.0,14,0.00,,CLR,0.00,VWS V14.00,2013-05-15 22:29:00,
2013-05-15 19:14:00,77.4,30.6,29.67,North,0,0.0,0.0,18,0.00,,CLR,0.00,VWS V14.00,2013-05-15 23:14:00,
2013-05-15 19:45:00,74.7,32.2,29.67,North,0,0.0,0.0,21,0.00,,CLR,0.00,VWS V14.00,2013-05-15 23:45:00,
2013-05-15 20:15:00,70.0,36.3,29.67,North,0,0.0,0.0,29,0.00,,SCT080,0.00,VWS V14.00,2013-05-16 00:15:00,
2013-05-15 20:29:00,68.4,38.2,29.67,North,0,0.0,0.0,33,0.00,,SCT080,0.00,VWS V14.00,2013-05-16 00:29:00,
2013-05-15 20:45:00,67.6,38.3,29.70,North,0,0.0,0.0,34,0.00,,CLR,0.00,VWS V14.00,2013-05-16 00:45:00,
2013-05-15 21:00:00,66.0,41.0,29.70,North,0,0.0,0.0,40,0.00,,CLR,0.00,VWS V14.00,2013-05-16 01:00:00,
2013-05-15 21:14:00,65.5,41.8,29.70,North,0,0.0,0.0,42,0.00,,CLR,0.00,VWS V14.00,2013-05-16 01:14:00,
2013-05-15 21:30:00,64.6,42.2,29.70,North,0,0.0,0.0,44,0.00,,CLR,0.00,VWS V14.00,2013-05-16 01:30:00,
2013-05-15 22:00:00,62.6,43.2,29.70,North,0,0.0,0.0,49,0.00,,CLR,0.00,VWS V14.00,2013-05-16 02:00:00,
2013-05-15 22:15:00,61.9,47.4,29.73,North,0,0.0,0.0,59,0.00,,CLR,0.00,VWS V14.00,2013-05-16 02:15:00,
2013-05-15 22:30:00,61.9,47.4,29.73,North,0,0.0,0.0,59,0.00,,CLR,0.00,VWS V14.00,2013-05-16 02:30:00,
2013-05-15 22:45:00,61.9,47.0,29.73,North,0,0.0,0.0,58,0.00,,CLR,0.00,VWS V14.00,2013-05-16 02:45:00,
2013-05-15 23:00:00,61.7,46.3,29.73,North,0,0.0,0.0,57,0.00,,CLR,0.00,VWS V14.00,2013-05-16 03:00:00,
2013-05-15 23:15:00,61.3,47.8,29.73,North,0,0.0,0.0,61,0.00,,CLR,0.00,VWS V14.00,2013-05-16 03:15:00,
2013-05-15 23:30:00,60.8,47.3,29.73,North,0,0.0,0.0,61,0.00,,CLR,0.00,VWS V14.00,2013-05-16 03:30:00,
2013-05-15 23:45:00,60.3,48.9,29.73,North,0,0.0,0.0,66,0.00,,CLR,0.00,VWS V14.00,2013-05-16 03:45:00,